sensor_id;sensor_type;location;lat;lon;timestamp;P1;durP1;ratioP1;P2;durP2;ratioP2
70975;SDS011;58635;51.198;6.010;2022-08-21T00:00:38;10.35;;;4.82;;
70975;SDS011;58635;51.198;6.010;2022-08-21T00:03:08;11.38;;;4.70;;
70975;SDS011;58635;51.198;6.010;2022-08-21T00:05:38;10.07;;;5.10;;
70975;SDS011;58635;51.198;6.010;2022-08-21T00:08:06;7.22;;;5.43;;
70975;SDS011;58635;51.198;6.010;2022-08-21T00:10:32;9.55;;;5.22;;
70975;SDS011;58635;51.198;6.010;2022-08-21T00:13:00;9.27;;;5.82;;
70975;SDS011;58635;51.198;6.010;2022-08-21T00:15:28;9.00;;;6.03;;
70975;SDS011;58635;51.198;6.010;2022-08-21T00:17:55;7.65;;;5.57;;
70975;SDS011;58635;51.198;6.010;2022-08-21T00:20:21;11.77;;;6.57;;
70975;SDS011;58635;51.198;6.010;2022-08-21T00:22:48;9.65;;;5.85;;
70975;SDS011;58635;51.198;6.010;2022-08-21T00:25:15;10.68;;;6.28;;
70975;SDS011;58635;51.198;6.010;2022-08-21T00:27:41;10.23;;;6.20;;
70975;SDS011;58635;51.198;6.010;2022-08-21T00:30:09;9.95;;;6.30;;
70975;SDS011;58635;51.198;6.010;2022-08-21T00:32:36;8.95;;;6.10;;
70975;SDS011;58635;51.198;6.010;2022-08-21T00:35:04;8.40;;;5.75;;
70975;SDS011;58635;51.198;6.010;2022-08-21T00:37:31;9.88;;;5.78;;
70975;SDS011;58635;51.198;6.010;2022-08-21T00:39:57;8.95;;;5.45;;
70975;SDS011;58635;51.198;6.010;2022-08-21T00:42:22;13.40;;;6.00;;
70975;SDS011;58635;51.198;6.010;2022-08-21T00:44:48;9.25;;;5.63;;
70975;SDS011;58635;51.198;6.010;2022-08-21T00:47:15;10.80;;;5.88;;
70975;SDS011;58635;51.198;6.010;2022-08-21T00:49:41;8.27;;;5.63;;
70975;SDS011;58635;51.198;6.010;2022-08-21T00:52:11;9.45;;;5.25;;
70975;SDS011;58635;51.198;6.010;2022-08-21T00:54:42;7.25;;;5.00;;
70975;SDS011;58635;51.198;6.010;2022-08-21T00:57:10;9.13;;;5.70;;
70975;SDS011;58635;51.198;6.010;2022-08-21T00:59:39;7.45;;;6.28;;
70975;SDS011;58635;51.198;6.010;2022-08-21T01:02:07;10.70;;;7.07;;
70975;SDS011;58635;51.198;6.010;2022-08-21T01:04:33;10.23;;;7.18;;
70975;SDS011;58635;51.198;6.010;2022-08-21T01:06:59;13.73;;;8.10;;
70975;SDS011;58635;51.198;6.010;2022-08-21T01:09:25;10.50;;;7.38;;
70975;SDS011;58635;51.198;6.010;2022-08-21T01:11:50;11.50;;;7.43;;
70975;SDS011;58635;51.198;6.010;2022-08-21T01:14:16;9.82;;;7.32;;
70975;SDS011;58635;51.198;6.010;2022-08-21T01:16:44;12.57;;;8.30;;
70975;SDS011;58635;51.198;6.010;2022-08-21T01:19:11;10.50;;;7.90;;
70975;SDS011;58635;51.198;6.010;2022-08-21T01:21:37;11.30;;;7.55;;
70975;SDS011;58635;51.198;6.010;2022-08-21T01:24:02;14.98;;;7.68;;
70975;SDS011;58635;51.198;6.010;2022-08-21T01:26:30;11.85;;;7.90;;
70975;SDS011;58635;51.198;6.010;2022-08-21T01:28:58;10.45;;;7.70;;
70975;SDS011;58635;51.198;6.010;2022-08-21T01:31:30;11.98;;;8.13;;
70975;SDS011;58635;51.198;6.010;2022-08-21T01:33:58;10.55;;;7.63;;
70975;SDS011;58635;51.198;6.010;2022-08-21T01:36:24;10.65;;;7.43;;
70975;SDS011;58635;51.198;6.010;2022-08-21T01:38:50;11.00;;;7.90;;
70975;SDS011;58635;51.198;6.010;2022-08-21T01:41:16;15.77;;;7.57;;
70975;SDS011;58635;51.198;6.010;2022-08-21T01:43:42;10.50;;;7.72;;
70975;SDS011;58635;51.198;6.010;2022-08-21T01:46:08;8.93;;;7.10;;
70975;SDS011;58635;51.198;6.010;2022-08-21T01:48:35;8.27;;;6.97;;
70975;SDS011;58635;51.198;6.010;2022-08-21T01:51:01;10.27;;;7.22;;
70975;SDS011;58635;51.198;6.010;2022-08-21T01:53:27;8.93;;;7.15;;
70975;SDS011;58635;51.198;6.010;2022-08-21T01:55:52;9.73;;;7.47;;
70975;SDS011;58635;51.198;6.010;2022-08-21T01:58:18;9.68;;;6.82;;
70975;SDS011;58635;51.198;6.010;2022-08-21T02:00:44;10.27;;;7.38;;
70975;SDS011;58635;51.198;6.010;2022-08-21T02:03:09;9.73;;;7.38;;
70975;SDS011;58635;51.198;6.010;2022-08-21T02:05:35;10.07;;;7.43;;
70975;SDS011;58635;51.198;6.010;2022-08-21T02:08:00;8.18;;;7.18;;
70975;SDS011;58635;51.198;6.010;2022-08-21T02:10:28;11.50;;;7.57;;
70975;SDS011;58635;51.198;6.010;2022-08-21T02:12:55;12.38;;;6.97;;
70975;SDS011;58635;51.198;6.010;2022-08-21T02:15:21;9.85;;;6.90;;
70975;SDS011;58635;51.198;6.010;2022-08-21T02:17:51;9.93;;;6.57;;
70975;SDS011;58635;51.198;6.010;2022-08-21T02:20:20;10.80;;;6.32;;
70975;SDS011;58635;51.198;6.010;2022-08-21T02:22:47;8.38;;;6.63;;
70975;SDS011;58635;51.198;6.010;2022-08-21T02:25:14;10.48;;;7.00;;
70975;SDS011;58635;51.198;6.010;2022-08-21T02:27:41;10.45;;;7.25;;
70975;SDS011;58635;51.198;6.010;2022-08-21T02:30:09;10.48;;;6.45;;
70975;SDS011;58635;51.198;6.010;2022-08-21T02:32:39;10.65;;;7.40;;
70975;SDS011;58635;51.198;6.010;2022-08-21T02:35:04;10.15;;;6.68;;
70975;SDS011;58635;51.198;6.010;2022-08-21T02:37:30;10.32;;;6.47;;
70975;SDS011;58635;51.198;6.010;2022-08-21T02:39:56;8.82;;;6.78;;
70975;SDS011;58635;51.198;6.010;2022-08-21T02:42:21;10.20;;;6.75;;
70975;SDS011;58635;51.198;6.010;2022-08-21T02:44:46;8.10;;;6.65;;
70975;SDS011;58635;51.198;6.010;2022-08-21T02:47:13;8.63;;;6.15;;
70975;SDS011;58635;51.198;6.010;2022-08-21T02:49:39;8.82;;;6.40;;
70975;SDS011;58635;51.198;6.010;2022-08-21T02:52:04;8.65;;;6.03;;
70975;SDS011;58635;51.198;6.010;2022-08-21T02:54:30;11.15;;;6.88;;
70975;SDS011;58635;51.198;6.010;2022-08-21T02:56:56;8.40;;;5.68;;
70975;SDS011;58635;51.198;6.010;2022-08-21T02:59:22;8.27;;;5.78;;
70975;SDS011;58635;51.198;6.010;2022-08-21T03:01:47;9.93;;;6.53;;
70975;SDS011;58635;51.198;6.010;2022-08-21T03:04:13;8.10;;;5.65;;
70975;SDS011;58635;51.198;6.010;2022-08-21T03:06:38;7.05;;;5.38;;
70975;SDS011;58635;51.198;6.010;2022-08-21T03:09:03;9.95;;;6.20;;
70975;SDS011;58635;51.198;6.010;2022-08-21T03:11:29;9.63;;;6.07;;
70975;SDS011;58635;51.198;6.010;2022-08-21T03:13:54;9.70;;;6.38;;
70975;SDS011;58635;51.198;6.010;2022-08-21T03:16:19;9.18;;;5.40;;
70975;SDS011;58635;51.198;6.010;2022-08-21T03:18:45;9.15;;;5.47;;
70975;SDS011;58635;51.198;6.010;2022-08-21T03:21:11;9.05;;;6.00;;
70975;SDS011;58635;51.198;6.010;2022-08-21T03:23:38;8.85;;;5.68;;
70975;SDS011;58635;51.198;6.010;2022-08-21T03:26:05;10.25;;;5.53;;
70975;SDS011;58635;51.198;6.010;2022-08-21T03:28:31;7.50;;;4.93;;
70975;SDS011;58635;51.198;6.010;2022-08-21T03:30:57;14.07;;;6.53;;
70975;SDS011;58635;51.198;6.010;2022-08-21T03:33:22;8.55;;;5.35;;
70975;SDS011;58635;51.198;6.010;2022-08-21T03:35:54;8.55;;;5.43;;
70975;SDS011;58635;51.198;6.010;2022-08-21T03:38:23;10.20;;;4.95;;
70975;SDS011;58635;51.198;6.010;2022-08-21T03:40:48;8.27;;;5.85;;
70975;SDS011;58635;51.198;6.010;2022-08-21T03:43:14;10.18;;;5.80;;
70975;SDS011;58635;51.198;6.010;2022-08-21T03:45:39;9.77;;;5.85;;
70975;SDS011;58635;51.198;6.010;2022-08-21T03:48:05;7.40;;;5.03;;
70975;SDS011;58635;51.198;6.010;2022-08-21T03:50:33;10.73;;;5.30;;
70975;SDS011;58635;51.198;6.010;2022-08-21T03:53:00;8.00;;;5.43;;
70975;SDS011;58635;51.198;6.010;2022-08-21T03:55:26;7.82;;;5.00;;
70975;SDS011;58635;51.198;6.010;2022-08-21T03:57:51;8.23;;;5.07;;
70975;SDS011;58635;51.198;6.010;2022-08-21T04:00:17;9.50;;;5.30;;
70975;SDS011;58635;51.198;6.010;2022-08-21T04:02:44;10.73;;;4.63;;
70975;SDS011;58635;51.198;6.010;2022-08-21T04:05:11;8.65;;;5.05;;
70975;SDS011;58635;51.198;6.010;2022-08-21T04:07:37;8.48;;;4.63;;
70975;SDS011;58635;51.198;6.010;2022-08-21T04:10:04;7.63;;;4.65;;
70975;SDS011;58635;51.198;6.010;2022-08-21T04:12:31;9.23;;;4.75;;
70975;SDS011;58635;51.198;6.010;2022-08-21T04:14:56;10.32;;;4.90;;
70975;SDS011;58635;51.198;6.010;2022-08-21T04:17:22;8.27;;;4.43;;
70975;SDS011;58635;51.198;6.010;2022-08-21T04:19:47;9.35;;;4.97;;
70975;SDS011;58635;51.198;6.010;2022-08-21T04:22:14;10.63;;;4.72;;
70975;SDS011;58635;51.198;6.010;2022-08-21T04:24:40;8.43;;;4.65;;
70975;SDS011;58635;51.198;6.010;2022-08-21T04:27:06;12.00;;;4.63;;
70975;SDS011;58635;51.198;6.010;2022-08-21T04:29:31;9.25;;;4.72;;
70975;SDS011;58635;51.198;6.010;2022-08-21T04:31:56;8.68;;;4.18;;
70975;SDS011;58635;51.198;6.010;2022-08-21T04:34:22;7.55;;;4.47;;
70975;SDS011;58635;51.198;6.010;2022-08-21T04:36:47;7.95;;;4.32;;
70975;SDS011;58635;51.198;6.010;2022-08-21T04:39:12;7.68;;;4.30;;
70975;SDS011;58635;51.198;6.010;2022-08-21T04:41:38;10.18;;;4.63;;
70975;SDS011;58635;51.198;6.010;2022-08-21T04:44:04;10.95;;;4.07;;
70975;SDS011;58635;51.198;6.010;2022-08-21T04:46:31;6.20;;;4.03;;
70975;SDS011;58635;51.198;6.010;2022-08-21T04:48:56;6.13;;;3.83;;
70975;SDS011;58635;51.198;6.010;2022-08-21T04:51:32;8.07;;;4.25;;
70975;SDS011;58635;51.198;6.010;2022-08-21T04:54:05;8.90;;;4.05;;
70975;SDS011;58635;51.198;6.010;2022-08-21T04:56:39;9.70;;;3.77;;
70975;SDS011;58635;51.198;6.010;2022-08-21T04:59:39;10.40;;;3.72;;
70975;SDS011;58635;51.198;6.010;2022-08-21T05:02:07;8.85;;;4.10;;
70975;SDS011;58635;51.198;6.010;2022-08-21T05:04:34;9.95;;;4.43;;
70975;SDS011;58635;51.198;6.010;2022-08-21T05:07:04;9.68;;;3.90;;
70975;SDS011;58635;51.198;6.010;2022-08-21T05:09:32;7.72;;;3.85;;
70975;SDS011;58635;51.198;6.010;2022-08-21T05:11:58;8.90;;;4.20;;
70975;SDS011;58635;51.198;6.010;2022-08-21T05:14:25;6.90;;;3.60;;
70975;SDS011;58635;51.198;6.010;2022-08-21T05:16:52;10.55;;;4.20;;
70975;SDS011;58635;51.198;6.010;2022-08-21T05:19:17;7.50;;;4.18;;
70975;SDS011;58635;51.198;6.010;2022-08-21T05:21:43;9.60;;;3.97;;
70975;SDS011;58635;51.198;6.010;2022-08-21T05:24:10;9.02;;;4.15;;
70975;SDS011;58635;51.198;6.010;2022-08-21T05:26:36;12.10;;;3.88;;
70975;SDS011;58635;51.198;6.010;2022-08-21T05:29:03;9.23;;;3.63;;
70975;SDS011;58635;51.198;6.010;2022-08-21T05:31:28;9.30;;;3.92;;
70975;SDS011;58635;51.198;6.010;2022-08-21T05:33:54;7.53;;;4.03;;
70975;SDS011;58635;51.198;6.010;2022-08-21T05:36:19;9.43;;;4.10;;
70975;SDS011;58635;51.198;6.010;2022-08-21T05:38:44;8.75;;;3.70;;
70975;SDS011;58635;51.198;6.010;2022-08-21T05:41:10;8.40;;;4.00;;
70975;SDS011;58635;51.198;6.010;2022-08-21T05:43:35;9.25;;;3.97;;
70975;SDS011;58635;51.198;6.010;2022-08-21T05:46:04;7.57;;;3.80;;
70975;SDS011;58635;51.198;6.010;2022-08-21T05:48:31;11.05;;;3.72;;
70975;SDS011;58635;51.198;6.010;2022-08-21T05:50:58;7.47;;;4.03;;
70975;SDS011;58635;51.198;6.010;2022-08-21T05:53:30;7.85;;;3.60;;
70975;SDS011;58635;51.198;6.010;2022-08-21T05:55:55;10.27;;;3.90;;
70975;SDS011;58635;51.198;6.010;2022-08-21T05:58:21;9.02;;;4.20;;
70975;SDS011;58635;51.198;6.010;2022-08-21T06:00:48;7.43;;;3.85;;
70975;SDS011;58635;51.198;6.010;2022-08-21T06:03:16;6.97;;;4.32;;
70975;SDS011;58635;51.198;6.010;2022-08-21T06:05:44;11.88;;;4.47;;
70975;SDS011;58635;51.198;6.010;2022-08-21T06:08:10;9.43;;;3.97;;
70975;SDS011;58635;51.198;6.010;2022-08-21T06:10:36;6.97;;;3.60;;
70975;SDS011;58635;51.198;6.010;2022-08-21T06:13:02;7.22;;;3.75;;
70975;SDS011;58635;51.198;6.010;2022-08-21T06:15:27;8.60;;;3.63;;
70975;SDS011;58635;51.198;6.010;2022-08-21T06:17:53;9.27;;;3.65;;
70975;SDS011;58635;51.198;6.010;2022-08-21T06:20:19;7.95;;;3.85;;
70975;SDS011;58635;51.198;6.010;2022-08-21T06:22:45;10.07;;;3.78;;
70975;SDS011;58635;51.198;6.010;2022-08-21T06:25:10;9.50;;;3.83;;
70975;SDS011;58635;51.198;6.010;2022-08-21T06:27:36;6.43;;;3.25;;
70975;SDS011;58635;51.198;6.010;2022-08-21T06:30:02;8.18;;;3.90;;
70975;SDS011;58635;51.198;6.010;2022-08-21T06:32:29;8.68;;;3.50;;
70975;SDS011;58635;51.198;6.010;2022-08-21T06:34:54;11.18;;;3.80;;
70975;SDS011;58635;51.198;6.010;2022-08-21T06:37:19;8.50;;;3.78;;
70975;SDS011;58635;51.198;6.010;2022-08-21T06:39:45;6.97;;;3.13;;
70975;SDS011;58635;51.198;6.010;2022-08-21T06:42:16;8.68;;;3.25;;
70975;SDS011;58635;51.198;6.010;2022-08-21T06:44:42;8.63;;;3.37;;
70975;SDS011;58635;51.198;6.010;2022-08-21T06:47:08;10.40;;;4.00;;
70975;SDS011;58635;51.198;6.010;2022-08-21T06:49:34;7.80;;;3.50;;
70975;SDS011;58635;51.198;6.010;2022-08-21T06:51:59;7.68;;;3.15;;
70975;SDS011;58635;51.198;6.010;2022-08-21T06:54:25;10.60;;;3.60;;
70975;SDS011;58635;51.198;6.010;2022-08-21T06:56:50;11.00;;;3.88;;
70975;SDS011;58635;51.198;6.010;2022-08-21T06:59:15;10.30;;;3.90;;
70975;SDS011;58635;51.198;6.010;2022-08-21T07:01:41;9.23;;;3.63;;
70975;SDS011;58635;51.198;6.010;2022-08-21T07:04:06;10.63;;;3.35;;
70975;SDS011;58635;51.198;6.010;2022-08-21T07:06:32;8.27;;;2.85;;
70975;SDS011;58635;51.198;6.010;2022-08-21T07:08:58;7.57;;;2.78;;
70975;SDS011;58635;51.198;6.010;2022-08-21T07:11:24;7.38;;;2.83;;
70975;SDS011;58635;51.198;6.010;2022-08-21T07:13:50;6.85;;;2.63;;
70975;SDS011;58635;51.198;6.010;2022-08-21T07:16:18;7.25;;;2.90;;
70975;SDS011;58635;51.198;6.010;2022-08-21T07:18:45;8.43;;;2.72;;
70975;SDS011;58635;51.198;6.010;2022-08-21T07:21:10;7.15;;;2.50;;
70975;SDS011;58635;51.198;6.010;2022-08-21T07:23:46;9.32;;;2.33;;
70975;SDS011;58635;51.198;6.010;2022-08-21T07:26:14;7.35;;;2.80;;
70975;SDS011;58635;51.198;6.010;2022-08-21T07:28:42;6.50;;;2.13;;
70975;SDS011;58635;51.198;6.010;2022-08-21T07:31:08;8.50;;;2.15;;
70975;SDS011;58635;51.198;6.010;2022-08-21T07:33:35;8.35;;;2.20;;
70975;SDS011;58635;51.198;6.010;2022-08-21T07:36:01;11.48;;;4.15;;
70975;SDS011;58635;51.198;6.010;2022-08-21T07:38:27;9.52;;;2.88;;
70975;SDS011;58635;51.198;6.010;2022-08-21T07:40:54;8.05;;;1.98;;
70975;SDS011;58635;51.198;6.010;2022-08-21T07:43:21;7.93;;;2.20;;
70975;SDS011;58635;51.198;6.010;2022-08-21T07:45:47;5.50;;;2.10;;
70975;SDS011;58635;51.198;6.010;2022-08-21T07:48:14;6.95;;;2.28;;
70975;SDS011;58635;51.198;6.010;2022-08-21T07:50:40;16.10;;;10.10;;
70975;SDS011;58635;51.198;6.010;2022-08-21T07:53:06;6.90;;;2.50;;
70975;SDS011;58635;51.198;6.010;2022-08-21T07:55:32;4.90;;;1.65;;
70975;SDS011;58635;51.198;6.010;2022-08-21T07:57:58;5.72;;;2.00;;
70975;SDS011;58635;51.198;6.010;2022-08-21T08:00:24;7.85;;;1.98;;
70975;SDS011;58635;51.198;6.010;2022-08-21T08:02:51;8.18;;;1.95;;
70975;SDS011;58635;51.198;6.010;2022-08-21T08:05:20;6.40;;;1.80;;
70975;SDS011;58635;51.198;6.010;2022-08-21T08:07:47;5.88;;;1.65;;
70975;SDS011;58635;51.198;6.010;2022-08-21T08:10:13;4.10;;;1.80;;
70975;SDS011;58635;51.198;6.010;2022-08-21T08:12:40;4.80;;;1.80;;
70975;SDS011;58635;51.198;6.010;2022-08-21T08:15:07;5.82;;;1.73;;
70975;SDS011;58635;51.198;6.010;2022-08-21T08:17:35;6.95;;;1.80;;
70975;SDS011;58635;51.198;6.010;2022-08-21T08:20:02;5.78;;;1.70;;
70975;SDS011;58635;51.198;6.010;2022-08-21T08:22:28;6.88;;;1.80;;
70975;SDS011;58635;51.198;6.010;2022-08-21T08:24:54;8.15;;;2.13;;
70975;SDS011;58635;51.198;6.010;2022-08-21T08:27:20;8.05;;;1.77;;
70975;SDS011;58635;51.198;6.010;2022-08-21T08:29:46;6.28;;;2.22;;
70975;SDS011;58635;51.198;6.010;2022-08-21T08:32:12;7.38;;;1.92;;
70975;SDS011;58635;51.198;6.010;2022-08-21T08:34:38;6.80;;;1.70;;
70975;SDS011;58635;51.198;6.010;2022-08-21T08:37:04;5.40;;;1.60;;
70975;SDS011;58635;51.198;6.010;2022-08-21T08:39:32;9.15;;;2.20;;
70975;SDS011;58635;51.198;6.010;2022-08-21T08:42:14;10.32;;;2.38;;
70975;SDS011;58635;51.198;6.010;2022-08-21T08:44:46;5.32;;;1.80;;
70975;SDS011;58635;51.198;6.010;2022-08-21T08:47:13;4.38;;;1.25;;
70975;SDS011;58635;51.198;6.010;2022-08-21T08:50:00;7.30;;;1.77;;
70975;SDS011;58635;51.198;6.010;2022-08-21T08:52:31;5.95;;;1.60;;
70975;SDS011;58635;51.198;6.010;2022-08-21T08:55:13;7.67;;;1.60;;
70975;SDS011;58635;51.198;6.010;2022-08-21T08:57:43;7.70;;;1.80;;
70975;SDS011;58635;51.198;6.010;2022-08-21T09:00:12;4.28;;;1.30;;
70975;SDS011;58635;51.198;6.010;2022-08-21T09:02:41;7.00;;;1.60;;
70975;SDS011;58635;51.198;6.010;2022-08-21T09:05:10;4.75;;;1.60;;
70975;SDS011;58635;51.198;6.010;2022-08-21T09:10:22;5.65;;;1.50;;
70975;SDS011;58635;51.198;6.010;2022-08-21T09:13:19;5.05;;;1.70;;
70975;SDS011;58635;51.198;6.010;2022-08-21T09:15:50;7.90;;;1.80;;
70975;SDS011;58635;51.198;6.010;2022-08-21T09:21:46;5.85;;;1.45;;
70975;SDS011;58635;51.198;6.010;2022-08-21T09:24:26;6.80;;;1.90;;
70975;SDS011;58635;51.198;6.010;2022-08-21T09:27:09;10.18;;;4.57;;
70975;SDS011;58635;51.198;6.010;2022-08-21T09:29:42;9.13;;;1.75;;
70975;SDS011;58635;51.198;6.010;2022-08-21T09:32:19;6.72;;;1.73;;
70975;SDS011;58635;51.198;6.010;2022-08-21T09:45:32;5.82;;;1.80;;
70975;SDS011;58635;51.198;6.010;2022-08-21T09:50:45;6.05;;;1.63;;
70975;SDS011;58635;51.198;6.010;2022-08-21T09:53:20;4.82;;;1.52;;
70975;SDS011;58635;51.198;6.010;2022-08-21T09:58:43;5.35;;;1.40;;
70975;SDS011;58635;51.198;6.010;2022-08-21T10:01:16;6.43;;;1.45;;
70975;SDS011;58635;51.198;6.010;2022-08-21T10:03:46;5.18;;;1.25;;
70975;SDS011;58635;51.198;6.010;2022-08-21T10:06:22;7.25;;;1.90;;
70975;SDS011;58635;51.198;6.010;2022-08-21T10:08:50;4.93;;;1.50;;
70975;SDS011;58635;51.198;6.010;2022-08-21T10:11:16;5.22;;;1.23;;
70975;SDS011;58635;51.198;6.010;2022-08-21T10:16:32;6.40;;;1.52;;
70975;SDS011;58635;51.198;6.010;2022-08-21T10:19:07;5.00;;;1.48;;
70975;SDS011;58635;51.198;6.010;2022-08-21T10:21:55;5.03;;;1.48;;
70975;SDS011;58635;51.198;6.010;2022-08-21T10:26:54;6.53;;;1.50;;
70975;SDS011;58635;51.198;6.010;2022-08-21T10:29:38;6.28;;;1.27;;
70975;SDS011;58635;51.198;6.010;2022-08-21T10:34:40;5.18;;;1.30;;
70975;SDS011;58635;51.198;6.010;2022-08-21T10:39:36;5.13;;;1.65;;
70975;SDS011;58635;51.198;6.010;2022-08-21T10:45:47;8.02;;;1.67;;
70975;SDS011;58635;51.198;6.010;2022-08-21T10:48:02;5.15;;;1.52;;
70975;SDS011;58635;51.198;6.010;2022-08-21T10:55:35;4.80;;;1.30;;
70975;SDS011;58635;51.198;6.010;2022-08-21T10:58:06;16.95;;;11.05;;
70975;SDS011;58635;51.198;6.010;2022-08-21T11:00:45;7.68;;;2.97;;
70975;SDS011;58635;51.198;6.010;2022-08-21T11:03:34;6.82;;;1.55;;
70975;SDS011;58635;51.198;6.010;2022-08-21T11:08:53;7.40;;;1.55;;
70975;SDS011;58635;51.198;6.010;2022-08-21T11:11:29;5.05;;;1.45;;
70975;SDS011;58635;51.198;6.010;2022-08-21T11:14:13;4.35;;;1.30;;
70975;SDS011;58635;51.198;6.010;2022-08-21T11:22:33;7.55;;;1.33;;
70975;SDS011;58635;51.198;6.010;2022-08-21T11:27:42;5.60;;;1.40;;
70975;SDS011;58635;51.198;6.010;2022-08-21T11:30:10;5.85;;;1.40;;
70975;SDS011;58635;51.198;6.010;2022-08-21T11:32:45;4.22;;;1.40;;
70975;SDS011;58635;51.198;6.010;2022-08-21T11:35:28;5.43;;;2.10;;
70975;SDS011;58635;51.198;6.010;2022-08-21T11:46:03;7.28;;;1.50;;
70975;SDS011;58635;51.198;6.010;2022-08-21T11:54:44;7.43;;;1.55;;
70975;SDS011;58635;51.198;6.010;2022-08-21T12:02:31;4.97;;;1.40;;
70975;SDS011;58635;51.198;6.010;2022-08-21T12:05:05;4.20;;;1.67;;
70975;SDS011;58635;51.198;6.010;2022-08-21T12:07:40;7.68;;;1.80;;
70975;SDS011;58635;51.198;6.010;2022-08-21T12:10:09;5.57;;;1.50;;
70975;SDS011;58635;51.198;6.010;2022-08-21T12:12:38;5.22;;;1.60;;
70975;SDS011;58635;51.198;6.010;2022-08-21T12:20:22;6.00;;;1.40;;
70975;SDS011;58635;51.198;6.010;2022-08-21T12:25:37;7.78;;;3.00;;
70975;SDS011;58635;51.198;6.010;2022-08-21T12:28:10;13.03;;;1.90;;
70975;SDS011;58635;51.198;6.010;2022-08-21T12:30:42;7.43;;;1.38;;
70975;SDS011;58635;51.198;6.010;2022-08-21T12:33:30;4.63;;;1.48;;
70975;SDS011;58635;51.198;6.010;2022-08-21T12:36:06;5.32;;;1.40;;
70975;SDS011;58635;51.198;6.010;2022-08-21T12:38:48;5.15;;;1.38;;
70975;SDS011;58635;51.198;6.010;2022-08-21T12:41:22;5.68;;;1.17;;
70975;SDS011;58635;51.198;6.010;2022-08-21T12:43:54;11.50;;;1.98;;
70975;SDS011;58635;51.198;6.010;2022-08-21T12:46:51;6.47;;;1.73;;
70975;SDS011;58635;51.198;6.010;2022-08-21T12:49:32;4.97;;;1.77;;
70975;SDS011;58635;51.198;6.010;2022-08-21T12:52:19;6.07;;;1.55;;
70975;SDS011;58635;51.198;6.010;2022-08-21T12:54:48;6.28;;;1.50;;
70975;SDS011;58635;51.198;6.010;2022-08-21T12:57:20;4.45;;;1.30;;
70975;SDS011;58635;51.198;6.010;2022-08-21T12:59:55;4.00;;;1.40;;
70975;SDS011;58635;51.198;6.010;2022-08-21T13:02:32;5.07;;;1.35;;
70975;SDS011;58635;51.198;6.010;2022-08-21T13:05:05;10.88;;;6.05;;
70975;SDS011;58635;51.198;6.010;2022-08-21T13:07:33;7.60;;;4.65;;
70975;SDS011;58635;51.198;6.010;2022-08-21T13:10:14;5.65;;;1.63;;
70975;SDS011;58635;51.198;6.010;2022-08-21T13:12:44;3.65;;;1.38;;
70975;SDS011;58635;51.198;6.010;2022-08-21T13:15:10;5.90;;;1.48;;
70975;SDS011;58635;51.198;6.010;2022-08-21T13:17:38;9.98;;;1.40;;
70975;SDS011;58635;51.198;6.010;2022-08-21T13:20:18;2.97;;;1.00;;
70975;SDS011;58635;51.198;6.010;2022-08-21T13:22:45;21.02;;;1.75;;
70975;SDS011;58635;51.198;6.010;2022-08-21T13:25:12;4.85;;;1.35;;
70975;SDS011;58635;51.198;6.010;2022-08-21T13:27:42;4.88;;;1.30;;
70975;SDS011;58635;51.198;6.010;2022-08-21T13:30:10;4.88;;;1.45;;
70975;SDS011;58635;51.198;6.010;2022-08-21T13:32:40;7.18;;;1.30;;
70975;SDS011;58635;51.198;6.010;2022-08-21T13:35:15;5.13;;;1.27;;
70975;SDS011;58635;51.198;6.010;2022-08-21T13:37:43;4.30;;;1.10;;
70975;SDS011;58635;51.198;6.010;2022-08-21T13:40:12;3.00;;;1.05;;
70975;SDS011;58635;51.198;6.010;2022-08-21T13:42:42;4.70;;;1.20;;
70975;SDS011;58635;51.198;6.010;2022-08-21T13:45:14;5.00;;;1.25;;
70975;SDS011;58635;51.198;6.010;2022-08-21T13:47:51;4.47;;;1.17;;
70975;SDS011;58635;51.198;6.010;2022-08-21T13:50:18;5.38;;;1.20;;
70975;SDS011;58635;51.198;6.010;2022-08-21T13:52:50;4.05;;;1.33;;
70975;SDS011;58635;51.198;6.010;2022-08-21T13:55:22;7.75;;;1.33;;
70975;SDS011;58635;51.198;6.010;2022-08-21T13:57:51;7.60;;;1.30;;
70975;SDS011;58635;51.198;6.010;2022-08-21T14:00:27;4.55;;;1.38;;
70975;SDS011;58635;51.198;6.010;2022-08-21T14:02:59;5.20;;;1.15;;
70975;SDS011;58635;51.198;6.010;2022-08-21T14:05:30;8.68;;;1.42;;
70975;SDS011;58635;51.198;6.010;2022-08-21T14:08:00;4.25;;;1.25;;
70975;SDS011;58635;51.198;6.010;2022-08-21T14:10:42;4.25;;;1.23;;
70975;SDS011;58635;51.198;6.010;2022-08-21T14:13:28;6.90;;;1.60;;
70975;SDS011;58635;51.198;6.010;2022-08-21T14:15:58;5.05;;;1.30;;
70975;SDS011;58635;51.198;6.010;2022-08-21T14:18:26;4.68;;;1.13;;
70975;SDS011;58635;51.198;6.010;2022-08-21T14:21:03;5.32;;;1.50;;
70975;SDS011;58635;51.198;6.010;2022-08-21T14:23:34;4.90;;;1.42;;
70975;SDS011;58635;51.198;6.010;2022-08-21T14:26:00;6.10;;;1.63;;
70975;SDS011;58635;51.198;6.010;2022-08-21T14:28:34;5.80;;;1.40;;
70975;SDS011;58635;51.198;6.010;2022-08-21T14:31:12;6.57;;;1.70;;
70975;SDS011;58635;51.198;6.010;2022-08-21T14:33:41;5.60;;;1.23;;
70975;SDS011;58635;51.198;6.010;2022-08-21T14:36:07;4.50;;;1.13;;
70975;SDS011;58635;51.198;6.010;2022-08-21T14:38:34;3.65;;;1.35;;
70975;SDS011;58635;51.198;6.010;2022-08-21T14:41:03;4.18;;;1.13;;
70975;SDS011;58635;51.198;6.010;2022-08-21T14:43:34;5.13;;;1.25;;
70975;SDS011;58635;51.198;6.010;2022-08-21T14:46:00;6.80;;;1.33;;
70975;SDS011;58635;51.198;6.010;2022-08-21T14:48:26;4.97;;;1.63;;
70975;SDS011;58635;51.198;6.010;2022-08-21T14:50:51;4.75;;;1.38;;
70975;SDS011;58635;51.198;6.010;2022-08-21T14:53:18;6.80;;;1.38;;
70975;SDS011;58635;51.198;6.010;2022-08-21T14:55:43;4.60;;;1.33;;
70975;SDS011;58635;51.198;6.010;2022-08-21T14:58:27;3.72;;;1.20;;
70975;SDS011;58635;51.198;6.010;2022-08-21T15:00:53;5.93;;;1.40;;
70975;SDS011;58635;51.198;6.010;2022-08-21T15:03:19;4.05;;;1.20;;
70975;SDS011;58635;51.198;6.010;2022-08-21T15:05:46;5.32;;;1.40;;
70975;SDS011;58635;51.198;6.010;2022-08-21T15:08:13;6.55;;;1.58;;
70975;SDS011;58635;51.198;6.010;2022-08-21T15:10:38;5.40;;;1.50;;
70975;SDS011;58635;51.198;6.010;2022-08-21T15:13:04;6.47;;;1.52;;
70975;SDS011;58635;51.198;6.010;2022-08-21T15:15:32;6.72;;;1.45;;
70975;SDS011;58635;51.198;6.010;2022-08-21T15:18:00;5.88;;;1.60;;
70975;SDS011;58635;51.198;6.010;2022-08-21T15:20:26;3.92;;;1.30;;
70975;SDS011;58635;51.198;6.010;2022-08-21T15:22:51;5.45;;;1.30;;
70975;SDS011;58635;51.198;6.010;2022-08-21T15:25:17;3.92;;;1.17;;
70975;SDS011;58635;51.198;6.010;2022-08-21T15:27:42;5.53;;;1.38;;
70975;SDS011;58635;51.198;6.010;2022-08-21T15:30:08;4.13;;;1.20;;
70975;SDS011;58635;51.198;6.010;2022-08-21T15:32:34;4.65;;;1.50;;
70975;SDS011;58635;51.198;6.010;2022-08-21T15:35:00;8.25;;;1.45;;
70975;SDS011;58635;51.198;6.010;2022-08-21T15:37:26;5.07;;;1.40;;
70975;SDS011;58635;51.198;6.010;2022-08-21T15:39:52;4.50;;;1.35;;
70975;SDS011;58635;51.198;6.010;2022-08-21T15:42:17;3.00;;;1.17;;
70975;SDS011;58635;51.198;6.010;2022-08-21T15:44:44;4.93;;;1.38;;
70975;SDS011;58635;51.198;6.010;2022-08-21T15:47:12;3.78;;;1.33;;
70975;SDS011;58635;51.198;6.010;2022-08-21T15:49:39;5.05;;;1.48;;
70975;SDS011;58635;51.198;6.010;2022-08-21T15:52:09;4.00;;;1.30;;
70975;SDS011;58635;51.198;6.010;2022-08-21T15:54:35;5.53;;;1.52;;
70975;SDS011;58635;51.198;6.010;2022-08-21T15:57:00;4.53;;;1.45;;
70975;SDS011;58635;51.198;6.010;2022-08-21T15:59:26;4.65;;;1.33;;
70975;SDS011;58635;51.198;6.010;2022-08-21T16:01:51;4.97;;;1.25;;
70975;SDS011;58635;51.198;6.010;2022-08-21T16:04:25;6.10;;;1.40;;
70975;SDS011;58635;51.198;6.010;2022-08-21T16:06:52;4.40;;;1.20;;
70975;SDS011;58635;51.198;6.010;2022-08-21T16:09:18;5.43;;;1.38;;
70975;SDS011;58635;51.198;6.010;2022-08-21T16:11:44;4.30;;;1.40;;
70975;SDS011;58635;51.198;6.010;2022-08-21T16:14:11;5.30;;;1.45;;